sensor_id;sensor_type;location;lat;lon;timestamp;temperature;humidity
33881;DHT22;20172;47.530;10.256;2022-09-28T00:01:52;8.50;99.90
33881;DHT22;20172;47.530;10.256;2022-09-28T00:04:18;8.50;99.90
33881;DHT22;20172;47.530;10.256;2022-09-28T00:06:44;8.70;99.90
33881;DHT22;20172;47.530;10.256;2022-09-28T00:09:12;8.70;99.90
33881;DHT22;20172;47.530;10.256;2022-09-28T00:11:38;8.70;99.90
33881;DHT22;20172;47.530;10.256;2022-09-28T00:14:03;8.80;99.90
33881;DHT22;20172;47.530;10.256;2022-09-28T00:16:33;8.70;99.90
33881;DHT22;20172;47.530;10.256;2022-09-28T00:18:59;8.80;99.90
33881;DHT22;20172;47.530;10.256;2022-09-28T00:21:26;8.70;99.90
33881;DHT22;20172;47.530;10.256;2022-09-28T00:23:52;8.70;99.90
33881;DHT22;20172;47.530;10.256;2022-09-28T00:26:37;8.80;99.90
33881;DHT22;20172;47.530;10.256;2022-09-28T00:29:04;8.40;99.90
33881;DHT22;20172;47.530;10.256;2022-09-28T00:31:33;8.00;99.90
33881;DHT22;20172;47.530;10.256;2022-09-28T00:33:59;7.90;99.90
33881;DHT22;20172;47.530;10.256;2022-09-28T00:36:26;7.80;99.90
33881;DHT22;20172;47.530;10.256;2022-09-28T00:38:55;7.80;99.90
33881;DHT22;20172;47.530;10.256;2022-09-28T00:41:22;7.70;99.90
33881;DHT22;20172;47.530;10.256;2022-09-28T00:43:48;7.70;99.90
33881;DHT22;20172;47.530;10.256;2022-09-28T00:46:17;7.60;99.90
33881;DHT22;20172;47.530;10.256;2022-09-28T00:48:48;7.50;99.90
33881;DHT22;20172;47.530;10.256;2022-09-28T00:51:15;7.40;99.90
33881;DHT22;20172;47.530;10.256;2022-09-28T00:53:41;7.50;99.90
33881;DHT22;20172;47.530;10.256;2022-09-28T00:56:08;7.50;99.90
33881;DHT22;20172;47.530;10.256;2022-09-28T00:58:37;7.50;99.90
33881;DHT22;20172;47.530;10.256;2022-09-28T01:01:03;7.70;99.90
33881;DHT22;20172;47.530;10.256;2022-09-28T01:03:29;7.90;99.90
33881;DHT22;20172;47.530;10.256;2022-09-28T01:05:57;7.80;99.90
33881;DHT22;20172;47.530;10.256;2022-09-28T01:08:23;7.60;99.90
33881;DHT22;20172;47.530;10.256;2022-09-28T01:10:51;7.50;99.90
33881;DHT22;20172;47.530;10.256;2022-09-28T01:13:17;7.40;99.90
33881;DHT22;20172;47.530;10.256;2022-09-28T01:15:56;7.60;99.90
33881;DHT22;20172;47.530;10.256;2022-09-28T01:18:29;7.60;99.90
33881;DHT22;20172;47.530;10.256;2022-09-28T01:20:59;7.60;99.90
33881;DHT22;20172;47.530;10.256;2022-09-28T01:28:24;7.40;99.90
33881;DHT22;20172;47.530;10.256;2022-09-28T01:33:49;7.10;99.90
33881;DHT22;20172;47.530;10.256;2022-09-28T01:36:18;7.10;99.90
33881;DHT22;20172;47.530;10.256;2022-09-28T01:38:46;7.30;99.90
33881;DHT22;20172;47.530;10.256;2022-09-28T01:41:12;7.40;99.90
33881;DHT22;20172;47.530;10.256;2022-09-28T01:43:41;7.60;99.90
33881;DHT22;20172;47.530;10.256;2022-09-28T01:46:11;7.40;99.90
33881;DHT22;20172;47.530;10.256;2022-09-28T01:51:04;7.10;99.90
33881;DHT22;20172;47.530;10.256;2022-09-28T01:53:33;7.00;99.90
33881;DHT22;20172;47.530;10.256;2022-09-28T01:56:04;7.00;99.90
33881;DHT22;20172;47.530;10.256;2022-09-28T02:00:59;6.90;99.90
33881;DHT22;20172;47.530;10.256;2022-09-28T02:04:11;7.10;99.90
33881;DHT22;20172;47.530;10.256;2022-09-28T02:06:15;7.20;99.90
33881;DHT22;20172;47.530;10.256;2022-09-28T02:08:45;7.20;99.90
33881;DHT22;20172;47.530;10.256;2022-09-28T02:11:14;7.30;99.90
33881;DHT22;20172;47.530;10.256;2022-09-28T02:13:45;7.20;99.90
33881;DHT22;20172;47.530;10.256;2022-09-28T02:16:20;7.20;99.90
33881;DHT22;20172;47.530;10.256;2022-09-28T02:18:46;7.10;99.90
33881;DHT22;20172;47.530;10.256;2022-09-28T02:21:14;7.30;99.90
33881;DHT22;20172;47.530;10.256;2022-09-28T02:23:40;7.40;99.90
33881;DHT22;20172;47.530;10.256;2022-09-28T02:26:08;7.40;99.90
33881;DHT22;20172;47.530;10.256;2022-09-28T02:28:36;7.30;99.90
33881;DHT22;20172;47.530;10.256;2022-09-28T02:31:01;7.30;99.90
33881;DHT22;20172;47.530;10.256;2022-09-28T02:35:52;7.40;99.90
33881;DHT22;20172;47.530;10.256;2022-09-28T02:38:18;7.50;99.90
33881;DHT22;20172;47.530;10.256;2022-09-28T02:40:45;7.50;99.90
33881;DHT22;20172;47.530;10.256;2022-09-28T02:43:15;7.50;99.90
33881;DHT22;20172;47.530;10.256;2022-09-28T02:45:49;7.60;99.90
33881;DHT22;20172;47.530;10.256;2022-09-28T02:51:19;7.80;99.90
33881;DHT22;20172;47.530;10.256;2022-09-28T03:01:27;7.80;99.90
33881;DHT22;20172;47.530;10.256;2022-09-28T03:03:56;7.90;99.90
33881;DHT22;20172;47.530;10.256;2022-09-28T03:08:56;8.10;99.90
33881;DHT22;20172;47.530;10.256;2022-09-28T03:12:08;8.10;99.90
33881;DHT22;20172;47.530;10.256;2022-09-28T03:14:14;8.10;99.90
33881;DHT22;20172;47.530;10.256;2022-09-28T03:16:43;7.90;99.90
33881;DHT22;20172;47.530;10.256;2022-09-28T03:19:12;7.90;99.90
33881;DHT22;20172;47.530;10.256;2022-09-28T03:21:38;7.80;99.90
33881;DHT22;20172;47.530;10.256;2022-09-28T03:24:03;7.90;99.90
33881;DHT22;20172;47.530;10.256;2022-09-28T03:26:30;8.10;99.90
33881;DHT22;20172;47.530;10.256;2022-09-28T03:28:56;7.90;99.90
33881;DHT22;20172;47.530;10.256;2022-09-28T03:31:21;7.90;99.90
33881;DHT22;20172;47.530;10.256;2022-09-28T03:33:47;7.90;99.90
33881;DHT22;20172;47.530;10.256;2022-09-28T03:36:12;7.80;99.90
33881;DHT22;20172;47.530;10.256;2022-09-28T03:38:39;7.80;99.90
33881;DHT22;20172;47.530;10.256;2022-09-28T03:41:05;7.80;99.90
33881;DHT22;20172;47.530;10.256;2022-09-28T03:43:31;8.00;99.90
33881;DHT22;20172;47.530;10.256;2022-09-28T03:45:58;7.80;99.90
33881;DHT22;20172;47.530;10.256;2022-09-28T03:48:25;7.50;99.90
33881;DHT22;20172;47.530;10.256;2022-09-28T03:50:51;7.50;99.90
33881;DHT22;20172;47.530;10.256;2022-09-28T03:53:17;7.60;99.90
33881;DHT22;20172;47.530;10.256;2022-09-28T03:55:42;7.70;99.90
33881;DHT22;20172;47.530;10.256;2022-09-28T03:58:08;7.60;99.90
33881;DHT22;20172;47.530;10.256;2022-09-28T04:00:33;7.80;99.90
33881;DHT22;20172;47.530;10.256;2022-09-28T04:02:59;7.90;99.90
33881;DHT22;20172;47.530;10.256;2022-09-28T04:05:24;8.00;99.90
33881;DHT22;20172;47.530;10.256;2022-09-28T04:07:50;7.90;99.90
33881;DHT22;20172;47.530;10.256;2022-09-28T04:10:15;7.90;99.90
33881;DHT22;20172;47.530;10.256;2022-09-28T04:12:41;7.90;99.90
33881;DHT22;20172;47.530;10.256;2022-09-28T04:15:07;7.90;99.90
33881;DHT22;20172;47.530;10.256;2022-09-28T04:17:32;8.00;99.90
33881;DHT22;20172;47.530;10.256;2022-09-28T04:19:58;7.90;99.90
33881;DHT22;20172;47.530;10.256;2022-09-28T04:22:24;7.80;99.90
33881;DHT22;20172;47.530;10.256;2022-09-28T04:24:49;7.70;99.90
33881;DHT22;20172;47.530;10.256;2022-09-28T04:27:15;7.50;99.90
33881;DHT22;20172;47.530;10.256;2022-09-28T04:29:59;7.70;99.90
33881;DHT22;20172;47.530;10.256;2022-09-28T04:32:24;7.60;99.90
33881;DHT22;20172;47.530;10.256;2022-09-28T04:34:50;7.50;99.90
33881;DHT22;20172;47.530;10.256;2022-09-28T04:37:16;7.40;99.90
33881;DHT22;20172;47.530;10.256;2022-09-28T04:39:41;7.30;99.90
33881;DHT22;20172;47.530;10.256;2022-09-28T04:42:13;7.30;99.90
33881;DHT22;20172;47.530;10.256;2022-09-28T04:44:38;7.30;99.90
33881;DHT22;20172;47.530;10.256;2022-09-28T04:47:04;7.40;99.90
33881;DHT22;20172;47.530;10.256;2022-09-28T04:49:29;7.70;99.90
33881;DHT22;20172;47.530;10.256;2022-09-28T04:51:55;7.80;99.90
33881;DHT22;20172;47.530;10.256;2022-09-28T04:54:20;7.80;99.90
33881;DHT22;20172;47.530;10.256;2022-09-28T04:56:48;7.80;99.90
33881;DHT22;20172;47.530;10.256;2022-09-28T04:59:16;7.90;99.90
33881;DHT22;20172;47.530;10.256;2022-09-28T05:01:42;7.70;99.90
33881;DHT22;20172;47.530;10.256;2022-09-28T05:04:07;7.70;99.90
33881;DHT22;20172;47.530;10.256;2022-09-28T05:06:33;7.70;99.90
33881;DHT22;20172;47.530;10.256;2022-09-28T05:08:59;7.70;99.90
33881;DHT22;20172;47.530;10.256;2022-09-28T05:11:24;7.70;99.90
33881;DHT22;20172;47.530;10.256;2022-09-28T05:13:50;7.60;99.90
33881;DHT22;20172;47.530;10.256;2022-09-28T05:16:15;7.60;99.90
33881;DHT22;20172;47.530;10.256;2022-09-28T05:18:41;7.60;99.90
33881;DHT22;20172;47.530;10.256;2022-09-28T05:21:10;7.60;99.90
33881;DHT22;20172;47.530;10.256;2022-09-28T05:23:37;7.40;99.90
33881;DHT22;20172;47.530;10.256;2022-09-28T05:26:03;7.50;99.90
33881;DHT22;20172;47.530;10.256;2022-09-28T05:28:29;7.60;99.90
33881;DHT22;20172;47.530;10.256;2022-09-28T05:30:59;7.70;99.90
33881;DHT22;20172;47.530;10.256;2022-09-28T05:33:25;7.70;99.90
33881;DHT22;20172;47.530;10.256;2022-09-28T05:35:53;7.80;99.90
33881;DHT22;20172;47.530;10.256;2022-09-28T05:38:18;7.80;99.90
33881;DHT22;20172;47.530;10.256;2022-09-28T05:40:44;7.80;99.90
33881;DHT22;20172;47.530;10.256;2022-09-28T05:43:09;7.80;99.90
33881;DHT22;20172;47.530;10.256;2022-09-28T05:45:35;7.70;99.90
33881;DHT22;20172;47.530;10.256;2022-09-28T05:48:00;7.70;99.90
33881;DHT22;20172;47.530;10.256;2022-09-28T05:50:26;8.00;99.90
33881;DHT22;20172;47.530;10.256;2022-09-28T05:52:58;8.10;99.90
33881;DHT22;20172;47.530;10.256;2022-09-28T05:55:24;8.20;99.90
33881;DHT22;20172;47.530;10.256;2022-09-28T05:57:50;8.30;99.90
33881;DHT22;20172;47.530;10.256;2022-09-28T06:00:15;8.30;99.90
33881;DHT22;20172;47.530;10.256;2022-09-28T06:02:41;8.20;99.90
33881;DHT22;20172;47.530;10.256;2022-09-28T06:05:06;8.20;99.90
33881;DHT22;20172;47.530;10.256;2022-09-28T06:07:32;8.10;99.90
33881;DHT22;20172;47.530;10.256;2022-09-28T06:09:57;8.20;99.90
33881;DHT22;20172;47.530;10.256;2022-09-28T06:12:23;8.20;99.90
33881;DHT22;20172;47.530;10.256;2022-09-28T06:14:50;8.20;99.90
33881;DHT22;20172;47.530;10.256;2022-09-28T06:17:15;8.10;99.90
33881;DHT22;20172;47.530;10.256;2022-09-28T06:19:41;8.30;99.90
33881;DHT22;20172;47.530;10.256;2022-09-28T06:22:06;8.50;99.90
33881;DHT22;20172;47.530;10.256;2022-09-28T06:24:32;8.40;99.90
33881;DHT22;20172;47.530;10.256;2022-09-28T06:26:57;8.20;99.90
33881;DHT22;20172;47.530;10.256;2022-09-28T06:29:23;8.30;99.90
33881;DHT22;20172;47.530;10.256;2022-09-28T06:31:48;8.50;99.90
33881;DHT22;20172;47.530;10.256;2022-09-28T06:34:14;8.60;99.90
33881;DHT22;20172;47.530;10.256;2022-09-28T06:36:39;8.60;99.90
33881;DHT22;20172;47.530;10.256;2022-09-28T06:39:05;8.70;99.90
33881;DHT22;20172;47.530;10.256;2022-09-28T06:41:31;8.70;99.90
33881;DHT22;20172;47.530;10.256;2022-09-28T06:43:56;8.70;99.90
33881;DHT22;20172;47.530;10.256;2022-09-28T06:46:22;8.80;99.90
33881;DHT22;20172;47.530;10.256;2022-09-28T06:48:48;8.70;99.90
33881;DHT22;20172;47.530;10.256;2022-09-28T06:51:14;8.70;99.90
33881;DHT22;20172;47.530;10.256;2022-09-28T06:53:40;8.70;99.90
33881;DHT22;20172;47.530;10.256;2022-09-28T06:56:09;8.70;99.90
33881;DHT22;20172;47.530;10.256;2022-09-28T06:58:37;8.80;99.90
33881;DHT22;20172;47.530;10.256;2022-09-28T07:01:03;8.90;99.90
33881;DHT22;20172;47.530;10.256;2022-09-28T07:03:29;8.90;99.90
33881;DHT22;20172;47.530;10.256;2022-09-28T07:05:55;9.00;99.90
33881;DHT22;20172;47.530;10.256;2022-09-28T07:08:24;9.20;99.90
33881;DHT22;20172;47.530;10.256;2022-09-28T07:10:50;9.20;99.90
33881;DHT22;20172;47.530;10.256;2022-09-28T07:13:21;9.30;99.90
33881;DHT22;20172;47.530;10.256;2022-09-28T07:15:47;9.30;99.90
33881;DHT22;20172;47.530;10.256;2022-09-28T07:18:13;9.30;99.90
33881;DHT22;20172;47.530;10.256;2022-09-28T07:20:38;9.40;99.90
33881;DHT22;20172;47.530;10.256;2022-09-28T07:23:04;9.20;99.90
33881;DHT22;20172;47.530;10.256;2022-09-28T07:25:30;9.10;99.90
33881;DHT22;20172;47.530;10.256;2022-09-28T07:28:00;9.10;99.90
33881;DHT22;20172;47.530;10.256;2022-09-28T07:30:26;8.90;99.90
33881;DHT22;20172;47.530;10.256;2022-09-28T07:32:52;8.80;99.90
33881;DHT22;20172;47.530;10.256;2022-09-28T07:35:18;8.90;99.90
33881;DHT22;20172;47.530;10.256;2022-09-28T07:37:43;8.50;99.90
33881;DHT22;20172;47.530;10.256;2022-09-28T07:40:09;8.40;99.90
33881;DHT22;20172;47.530;10.256;2022-09-28T07:42:53;8.50;99.90
33881;DHT22;20172;47.530;10.256;2022-09-28T07:45:19;8.40;99.90
33881;DHT22;20172;47.530;10.256;2022-09-28T07:47:45;8.50;99.90
33881;DHT22;20172;47.530;10.256;2022-09-28T07:50:11;8.60;99.90
33881;DHT22;20172;47.530;10.256;2022-09-28T07:52:37;8.60;99.90
33881;DHT22;20172;47.530;10.256;2022-09-28T07:55:02;8.70;99.90
33881;DHT22;20172;47.530;10.256;2022-09-28T07:57:29;8.80;99.90
33881;DHT22;20172;47.530;10.256;2022-09-28T07:59:57;8.80;99.90
33881;DHT22;20172;47.530;10.256;2022-09-28T08:02:22;8.80;99.90
33881;DHT22;20172;47.530;10.256;2022-09-28T08:04:48;8.70;99.90
33881;DHT22;20172;47.530;10.256;2022-09-28T08:07:14;8.70;99.90
33881;DHT22;20172;47.530;10.256;2022-09-28T08:09:41;8.80;99.90
33881;DHT22;20172;47.530;10.256;2022-09-28T08:12:07;8.70;99.90
33881;DHT22;20172;47.530;10.256;2022-09-28T08:14:32;8.90;99.90
33881;DHT22;20172;47.530;10.256;2022-09-28T08:16:59;8.90;99.90
33881;DHT22;20172;47.530;10.256;2022-09-28T08:19:24;8.90;99.90
33881;DHT22;20172;47.530;10.256;2022-09-28T08:21:50;8.70;99.90
33881;DHT22;20172;47.530;10.256;2022-09-28T08:24:15;8.60;99.90
33881;DHT22;20172;47.530;10.256;2022-09-28T08:26:42;8.50;99.90
33881;DHT22;20172;47.530;10.256;2022-09-28T08:29:08;8.30;99.90
33881;DHT22;20172;47.530;10.256;2022-09-28T08:31:34;8.30;99.90
33881;DHT22;20172;47.530;10.256;2022-09-28T08:34:00;8.50;99.90
33881;DHT22;20172;47.530;10.256;2022-09-28T08:36:25;8.60;99.90
33881;DHT22;20172;47.530;10.256;2022-09-28T08:38:52;8.50;99.90
33881;DHT22;20172;47.530;10.256;2022-09-28T08:41:25;8.70;99.90
33881;DHT22;20172;47.530;10.256;2022-09-28T08:46:22;8.70;99.90
33881;DHT22;20172;47.530;10.256;2022-09-28T08:49:11;8.90;99.90
33881;DHT22;20172;47.530;10.256;2022-09-28T08:51:37;9.00;99.90
33881;DHT22;20172;47.530;10.256;2022-09-28T08:54:22;9.10;99.90
33881;DHT22;20172;47.530;10.256;2022-09-28T08:56:50;9.40;99.90
33881;DHT22;20172;47.530;10.256;2022-09-28T08:59:17;9.40;99.90
33881;DHT22;20172;47.530;10.256;2022-09-28T09:01:48;9.50;99.90
33881;DHT22;20172;47.530;10.256;2022-09-28T09:04:14;9.70;99.90
33881;DHT22;20172;47.530;10.256;2022-09-28T09:11:49;10.10;99.90
33881;DHT22;20172;47.530;10.256;2022-09-28T09:19:39;10.50;99.90
33881;DHT22;20172;47.530;10.256;2022-09-28T09:24:51;10.70;99.90
33881;DHT22;20172;47.530;10.256;2022-09-28T09:35:01;10.60;99.90
33881;DHT22;20172;47.530;10.256;2022-09-28T09:40:14;10.50;99.90
33881;DHT22;20172;47.530;10.256;2022-09-28T09:48:01;10.30;99.90
33881;DHT22;20172;47.530;10.256;2022-09-28T09:50:35;10.30;99.90
33881;DHT22;20172;47.530;10.256;2022-09-28T09:58:01;10.00;99.90
33881;DHT22;20172;47.530;10.256;2022-09-28T10:00:28;10.00;99.90
33881;DHT22;20172;47.530;10.256;2022-09-28T10:02:54;10.20;99.90
33881;DHT22;20172;47.530;10.256;2022-09-28T10:05:23;10.00;99.90
33881;DHT22;20172;47.530;10.256;2022-09-28T10:07:51;9.80;99.90
33881;DHT22;20172;47.530;10.256;2022-09-28T10:10:19;10.00;99.90
33881;DHT22;20172;47.530;10.256;2022-09-28T10:12:45;10.10;99.90
33881;DHT22;20172;47.530;10.256;2022-09-28T10:15:14;10.30;99.90
33881;DHT22;20172;47.530;10.256;2022-09-28T10:17:40;10.40;99.90
33881;DHT22;20172;47.530;10.256;2022-09-28T10:20:05;10.40;99.90
33881;DHT22;20172;47.530;10.256;2022-09-28T10:22:35;10.50;99.90
33881;DHT22;20172;47.530;10.256;2022-09-28T10:25:01;10.70;99.90
33881;DHT22;20172;47.530;10.256;2022-09-28T10:27:29;10.70;99.90
33881;DHT22;20172;47.530;10.256;2022-09-28T10:30:17;10.60;99.90
33881;DHT22;20172;47.530;10.256;2022-09-28T10:32:43;10.20;99.90
33881;DHT22;20172;47.530;10.256;2022-09-28T10:35:13;10.20;99.90
33881;DHT22;20172;47.530;10.256;2022-09-28T10:37:58;10.50;99.90
33881;DHT22;20172;47.530;10.256;2022-09-28T10:40:25;10.70;99.90
33881;DHT22;20172;47.530;10.256;2022-09-28T10:43:01;10.80;99.90
33881;DHT22;20172;47.530;10.256;2022-09-28T10:45:27;10.50;99.90
33881;DHT22;20172;47.530;10.256;2022-09-28T10:47:57;10.30;99.90
33881;DHT22;20172;47.530;10.256;2022-09-28T10:50:23;10.30;99.90
33881;DHT22;20172;47.530;10.256;2022-09-28T10:52:50;10.30;99.90
33881;DHT22;20172;47.530;10.256;2022-09-28T10:55:32;10.30;99.90
33881;DHT22;20172;47.530;10.256;2022-09-28T10:57:58;10.50;99.90
33881;DHT22;20172;47.530;10.256;2022-09-28T11:00:36;10.60;99.90
33881;DHT22;20172;47.530;10.256;2022-09-28T11:03:02;10.70;99.90
33881;DHT22;20172;47.530;10.256;2022-09-28T11:05:27;10.90;99.90
33881;DHT22;20172;47.530;10.256;2022-09-28T11:07:55;11.00;99.90
33881;DHT22;20172;47.530;10.256;2022-09-28T11:10:22;10.90;99.90
33881;DHT22;20172;47.530;10.256;2022-09-28T11:12:50;10.90;99.90
33881;DHT22;20172;47.530;10.256;2022-09-28T11:15:20;10.90;99.90
33881;DHT22;20172;47.530;10.256;2022-09-28T11:17:46;11.00;99.90
33881;DHT22;20172;47.530;10.256;2022-09-28T11:22:59;11.00;99.90
33881;DHT22;20172;47.530;10.256;2022-09-28T11:25:26;11.00;99.90
33881;DHT22;20172;47.530;10.256;2022-09-28T11:32:53;11.20;99.90
33881;DHT22;20172;47.530;10.256;2022-09-28T11:35:24;11.40;99.90
33881;DHT22;20172;47.530;10.256;2022-09-28T11:38:02;11.50;99.90
33881;DHT22;20172;47.530;10.256;2022-09-28T11:48:17;12.10;99.90
33881;DHT22;20172;47.530;10.256;2022-09-28T11:50:47;12.30;99.90
33881;DHT22;20172;47.530;10.256;2022-09-28T11:55:46;12.00;99.90
33881;DHT22;20172;47.530;10.256;2022-09-28T12:00:58;12.00;99.90
33881;DHT22;20172;47.530;10.256;2022-09-28T12:06:05;11.90;99.90
33881;DHT22;20172;47.530;10.256;2022-09-28T12:08:34;12.00;99.90
33881;DHT22;20172;47.530;10.256;2022-09-28T12:11:35;12.10;99.90
33881;DHT22;20172;47.530;10.256;2022-09-28T12:13:53;12.20;99.90
33881;DHT22;20172;47.530;10.256;2022-09-28T12:18:51;12.90;99.90
33881;DHT22;20172;47.530;10.256;2022-09-28T12:21:21;13.30;99.90
33881;DHT22;20172;47.530;10.256;2022-09-28T12:26:47;14.50;99.90
33881;DHT22;20172;47.530;10.256;2022-09-28T12:30:16;14.60;99.90
33881;DHT22;20172;47.530;10.256;2022-09-28T12:32:15;14.50;99.90
33881;DHT22;20172;47.530;10.256;2022-09-28T12:34:44;14.40;99.90
33881;DHT22;20172;47.530;10.256;2022-09-28T12:49:37;12.60;99.90
33881;DHT22;20172;47.530;10.256;2022-09-28T12:54:53;12.70;99.90
33881;DHT22;20172;47.530;10.256;2022-09-28T12:59:57;12.50;99.90
33881;DHT22;20172;47.530;10.256;2022-09-28T13:02:30;12.60;99.90
33881;DHT22;20172;47.530;10.256;2022-09-28T13:18:02;14.20;99.90
33881;DHT22;20172;47.530;10.256;2022-09-28T13:23:13;14.40;99.90
33881;DHT22;20172;47.530;10.256;2022-09-28T13:25:46;14.10;99.90
33881;DHT22;20172;47.530;10.256;2022-09-28T13:28:13;13.90;99.90
33881;DHT22;20172;47.530;10.256;2022-09-28T13:30:39;13.80;99.90
33881;DHT22;20172;47.530;10.256;2022-09-28T13:33:06;13.80;99.90
33881;DHT22;20172;47.530;10.256;2022-09-28T13:35:32;13.70;99.90
33881;DHT22;20172;47.530;10.256;2022-09-28T13:43:29;13.60;99.90
33881;DHT22;20172;47.530;10.256;2022-09-28T13:45:57;13.30;99.90
33881;DHT22;20172;47.530;10.256;2022-09-28T13:48:33;12.90;99.90
33881;DHT22;20172;47.530;10.256;2022-09-28T13:56:47;12.40;99.90
33881;DHT22;20172;47.530;10.256;2022-09-28T13:59:27;12.50;99.90
33881;DHT22;20172;47.530;10.256;2022-09-28T14:07:17;12.40;99.90
33881;DHT22;20172;47.530;10.256;2022-09-28T14:09:45;12.30;99.90
33881;DHT22;20172;47.530;10.256;2022-09-28T14:12:42;12.30;99.90
33881;DHT22;20172;47.530;10.256;2022-09-28T14:17:56;11.90;99.90
33881;DHT22;20172;47.530;10.256;2022-09-28T14:20:23;11.90;99.90
33881;DHT22;20172;47.530;10.256;2022-09-28T14:25:35;11.90;99.90
33881;DHT22;20172;47.530;10.256;2022-09-28T14:28:11;11.90;99.90
33881;DHT22;20172;47.530;10.256;2022-09-28T14:30:47;11.90;99.90
33881;DHT22;20172;47.530;10.256;2022-09-28T14:35:48;12.00;99.90
33881;DHT22;20172;47.530;10.256;2022-09-28T14:38:16;11.70;99.90
33881;DHT22;20172;47.530;10.256;2022-09-28T14:48:51;11.30;99.90
33881;DHT22;20172;47.530;10.256;2022-09-28T14:53:49;11.20;99.90
33881;DHT22;20172;47.530;10.256;2022-09-28T14:56:15;11.10;99.90
33881;DHT22;20172;47.530;10.256;2022-09-28T14:58:42;11.00;99.90
33881;DHT22;20172;47.530;10.256;2022-09-28T15:01:11;11.00;99.90
33881;DHT22;20172;47.530;10.256;2022-09-28T15:03:41;11.10;99.90
33881;DHT22;20172;47.530;10.256;2022-09-28T15:06:12;11.10;99.90
33881;DHT22;20172;47.530;10.256;2022-09-28T15:08:39;11.00;99.90
33881;DHT22;20172;47.530;10.256;2022-09-28T15:11:04;11.00;99.90
33881;DHT22;20172;47.530;10.256;2022-09-28T15:13:30;10.90;99.90
33881;DHT22;20172;47.530;10.256;2022-09-28T15:21:11;10.60;99.90
33881;DHT22;20172;47.530;10.256;2022-09-28T15:23:38;10.50;99.90
33881;DHT22;20172;47.530;10.256;2022-09-28T15:26:05;10.40;99.90
33881;DHT22;20172;47.530;10.256;2022-09-28T15:28:34;10.40;99.90
33881;DHT22;20172;47.530;10.256;2022-09-28T15:31:02;10.30;99.90
33881;DHT22;20172;47.530;10.256;2022-09-28T15:36:22;10.40;99.90
33881;DHT22;20172;47.530;10.256;2022-09-28T15:38:50;10.40;99.90
33881;DHT22;20172;47.530;10.256;2022-09-28T15:41:17;10.40;99.90
33881;DHT22;20172;47.530;10.256;2022-09-28T15:43:42;10.30;99.90
33881;DHT22;20172;47.530;10.256;2022-09-28T15:46:11;10.20;99.90
33881;DHT22;20172;47.530;10.256;2022-09-28T15:48:50;10.30;99.90
33881;DHT22;20172;47.530;10.256;2022-09-28T15:51:20;10.20;99.90
33881;DHT22;20172;47.530;10.256;2022-09-28T15:56:20;10.10;99.90
33881;DHT22;20172;47.530;10.256;2022-09-28T15:59:06;10.00;99.90
33881;DHT22;20172;47.530;10.256;2022-09-28T16:01:33;10.00;99.90
33881;DHT22;20172;47.530;10.256;2022-09-28T16:07:03;10.00;99.90
33881;DHT22;20172;47.530;10.256;2022-09-28T16:09:29;9.90;99.90
33881;DHT22;20172;47.530;10.256;2022-09-28T16:11:55;9.90;99.90
33881;DHT22;20172;47.530;10.256;2022-09-28T16:14:21;9.80;99.90
33881;DHT22;20172;47.530;10.256;2022-09-28T16:16:49;9.70;99.90
33881;DHT22;20172;47.530;10.256;2022-09-28T16:22:04;9.70;99.90
33881;DHT22;20172;47.530;10.256;2022-09-28T16:26:58;9.70;99.90
33881;DHT22;20172;47.530;10.256;2022-09-28T16:29:35;9.80;99.90
33881;DHT22;20172;47.530;10.256;2022-09-28T16:34:49;9.80;99.90
33881;DHT22;20172;47.530;10.256;2022-09-28T16:37:28;9.90;99.90
33881;DHT22;20172;47.530;10.256;2022-09-28T16:39:55;9.90;99.90
33881;DHT22;20172;47.530;10.256;2022-09-28T16:42:21;10.00;99.90
33881;DHT22;20172;47.530;10.256;2022-09-28T16:44:46;9.90;99.90
33881;DHT22;20172;47.530;10.256;2022-09-28T16:47:12;9.90;99.90
33881;DHT22;20172;47.530;10.256;2022-09-28T16:49:40;10.00;99.90
33881;DHT22;20172;47.530;10.256;2022-09-28T16:52:09;10.00;99.90
33881;DHT22;20172;47.530;10.256;2022-09-28T16:54:36;10.00;99.90
33881;DHT22;20172;47.530;10.256;2022-09-28T16:57:40;10.00;99.90
33881;DHT22;20172;47.530;10.256;2022-09-28T17:00:07;10.00;99.90
33881;DHT22;20172;47.530;10.256;2022-09-28T17:02:33;10.00;99.90
33881;DHT22;20172;47.530;10.256;2022-09-28T17:05:00;10.00;99.90
33881;DHT22;20172;47.530;10.256;2022-09-28T17:07:26;10.00;99.90
33881;DHT22;20172;47.530;10.256;2022-09-28T17:09:51;10.00;99.90
33881;DHT22;20172;47.530;10.256;2022-09-28T17:12:21;10.10;99.90
33881;DHT22;20172;47.530;10.256;2022-09-28T17:14:51;10.00;99.90
33881;DHT22;20172;47.530;10.256;2022-09-28T17:17:17;10.00;99.90
33881;DHT22;20172;47.530;10.256;2022-09-28T17:19:43;9.80;99.90
33881;DHT22;20172;47.530;10.256;2022-09-28T17:22:08;9.90;99.90
33881;DHT22;20172;47.530;10.256;2022-09-28T17:24:34;9.80;99.90
33881;DHT22;20172;47.530;10.256;2022-09-28T17:27:00;9.80;99.90
33881;DHT22;20172;47.530;10.256;2022-09-28T17:29:26;9.80;99.90
33881;DHT22;20172;47.530;10.256;2022-09-28T17:31:54;9.80;99.90
33881;DHT22;20172;47.530;10.256;2022-09-28T17:34:20;9.80;99.90
33881;DHT22;20172;47.530;10.256;2022-09-28T17:36:48;9.70;99.90
33881;DHT22;20172;47.530;10.256;2022-09-28T17:39:15;9.70;99.90
33881;DHT22;20172;47.530;10.256;2022-09-28T17:41:41;9.70;99.90
33881;DHT22;20172;47.530;10.256;2022-09-28T17:44:07;9.60;99.90
33881;DHT22;20172;47.530;10.256;2022-09-28T17:46:33;9.60;99.90
33881;DHT22;20172;47.530;10.256;2022-09-28T17:49:01;9.50;99.90
33881;DHT22;20172;47.530;10.256;2022-09-28T17:51:27;9.40;99.90
33881;DHT22;20172;47.530;10.256;2022-09-28T17:53:55;9.40;99.90
33881;DHT22;20172;47.530;10.256;2022-09-28T17:56:21;9.40;99.90
33881;DHT22;20172;47.530;10.256;2022-09-28T17:58:47;9.40;99.90
33881;DHT22;20172;47.530;10.256;2022-09-28T18:01:16;9.40;99.90
33881;DHT22;20172;47.530;10.256;2022-09-28T18:03:45;9.40;99.90
33881;DHT22;20172;47.530;10.256;2022-09-28T18:06:19;9.30;99.90
33881;DHT22;20172;47.530;10.256;2022-09-28T18:08:46;9.20;99.90
33881;DHT22;20172;47.530;10.256;2022-09-28T18:11:22;9.20;99.90
33881;DHT22;20172;47.530;10.256;2022-09-28T18:13:53;9.10;99.90
33881;DHT22;20172;47.530;10.256;2022-09-28T18:16:21;9.10;99.90
33881;DHT22;20172;47.530;10.256;2022-09-28T18:18:50;9.10;99.90
33881;DHT22;20172;47.530;10.256;2022-09-28T18:21:15;9.10;99.90
33881;DHT22;20172;47.530;10.256;2022-09-28T18:23:41;9.10;99.90
33881;DHT22;20172;47.530;10.256;2022-09-28T18:26:13;9.10;99.90
33881;DHT22;20172;47.530;10.256;2022-09-28T18:28:38;9.10;99.90
33881;DHT22;20172;47.530;10.256;2022-09-28T18:31:08;9.10;99.90
33881;DHT22;20172;47.530;10.256;2022-09-28T18:33:33;9.10;99.90
33881;DHT22;20172;47.530;10.256;2022-09-28T18:35:59;9.10;99.90